createdAt,value
2023-05-01T00:00:52.454Z,11.93
2023-05-01T00:03:21.146Z,11.70
2023-05-01T00:05:48.498Z,13.37
2023-05-01T00:08:16.223Z,7.60
2023-05-01T00:10:43.180Z,7.83
2023-05-01T00:13:10.338Z,11.03
2023-05-01T00:15:37.401Z,9.40
2023-05-01T00:18:04.608Z,12.40
2023-05-01T00:20:32.802Z,9.67
2023-05-01T00:22:59.934Z,9.63
2023-05-01T00:25:26.936Z,12.90
2023-05-01T00:27:54.148Z,11.23
2023-05-01T00:30:21.034Z,8.00
2023-05-01T00:32:48.330Z,13.33
2023-05-01T00:35:18.033Z,10.73
2023-05-01T00:37:46.558Z,12.60
2023-05-01T00:40:13.397Z,12.40
2023-05-01T00:42:41.195Z,9.20
2023-05-01T00:45:09.067Z,10.60
2023-05-01T00:47:36.738Z,23.07
2023-05-01T00:50:04.028Z,13.57
2023-05-01T00:52:31.079Z,8.50
2023-05-01T00:54:59.465Z,7.00
2023-05-01T00:57:26.724Z,10.70
2023-05-01T00:59:53.581Z,10.87
2023-05-01T01:02:20.785Z,8.63
2023-05-01T01:04:48.798Z,8.30
2023-05-01T01:07:22.013Z,11.17
2023-05-01T01:09:58.199Z,6.57
2023-05-01T01:12:32.357Z,9.33
2023-05-01T01:15:08.021Z,9.77
2023-05-01T01:17:42.540Z,6.17
2023-05-01T01:20:30.287Z,6.43
2023-05-01T01:23:08.632Z,9.30
2023-05-01T01:26:00.452Z,6.30
2023-05-01T01:28:55.815Z,9.10
2023-05-01T01:31:32.939Z,9.63
2023-05-01T01:34:04.280Z,8.33
2023-05-01T01:36:49.655Z,6.63
2023-05-01T01:39:26.916Z,7.60
2023-05-01T01:41:57.960Z,6.00
2023-05-01T01:44:32.259Z,7.77
2023-05-01T01:47:01.903Z,8.17
2023-05-01T01:49:32.548Z,13.30
2023-05-01T01:52:02.997Z,8.57
2023-05-01T01:54:35.539Z,6.73
2023-05-01T01:57:04.727Z,10.80
2023-05-01T01:59:34.901Z,10.30
2023-05-01T02:02:04.285Z,9.30
2023-05-01T02:04:34.095Z,11.10
2023-05-01T02:07:03.160Z,10.77
2023-05-01T02:09:31.243Z,15.97
2023-05-01T02:12:00.340Z,15.77
2023-05-01T02:14:28.056Z,21.10
2023-05-01T02:16:57.728Z,8.90
2023-05-01T02:19:25.665Z,11.60
2023-05-01T02:21:56.223Z,12.17
2023-05-01T02:24:24.889Z,6.63
2023-05-01T02:26:57.190Z,10.30
2023-05-01T02:29:25.445Z,9.30
2023-05-01T02:31:52.384Z,9.80
2023-05-01T02:34:19.615Z,5.57
2023-05-01T02:36:46.557Z,10.90
2023-05-01T02:39:15.165Z,11.80
2023-05-01T02:41:42.264Z,9.27
2023-05-01T02:44:11.724Z,11.23
2023-05-01T02:46:43.096Z,13.70
2023-05-01T02:49:12.778Z,10.90
2023-05-01T02:51:41.004Z,11.60
2023-05-01T02:54:08.669Z,9.60
2023-05-01T02:56:37.232Z,15.13
2023-05-01T02:59:04.389Z,11.13
2023-05-01T03:01:31.257Z,7.23
2023-05-01T03:03:58.301Z,12.27
2023-05-01T03:06:25.333Z,8.47
2023-05-01T03:08:52.533Z,9.77
2023-05-01T03:11:19.319Z,10.73
2023-05-01T03:13:48.181Z,12.63
2023-05-01T03:16:15.025Z,7.47
2023-05-01T03:18:42.228Z,7.07
2023-05-01T03:21:09.146Z,11.23
2023-05-01T03:23:36.457Z,9.73
2023-05-01T03:26:03.275Z,9.20
2023-05-01T03:28:30.388Z,8.57
2023-05-01T03:30:58.516Z,7.57
2023-05-01T03:33:26.641Z,9.53
2023-05-01T03:36:00.604Z,10.60
2023-05-01T03:38:28.427Z,9.70
2023-05-01T03:40:55.257Z,10.37
2023-05-01T03:43:22.576Z,7.63
2023-05-01T03:45:49.398Z,6.80
2023-05-01T03:48:18.002Z,12.47
2023-05-01T03:50:44.823Z,11.77
2023-05-01T03:53:11.969Z,12.33
2023-05-01T03:55:38.753Z,10.77
2023-05-01T03:58:06.033Z,9.63
2023-05-01T04:00:33.360Z,9.90
2023-05-01T04:03:00.451Z,10.97
2023-05-01T04:05:29.328Z,12.50
2023-05-01T04:07:56.291Z,11.53
2023-05-01T04:10:23.785Z,12.30
2023-05-01T04:12:50.509Z,14.37
2023-05-01T04:15:17.423Z,9.37
2023-05-01T04:17:44.594Z,13.90
2023-05-01T04:20:12.678Z,14.43
2023-05-01T04:22:40.938Z,15.27
2023-05-01T04:25:09.284Z,12.80
2023-05-01T04:27:36.057Z,13.90
2023-05-01T04:30:03.569Z,14.73
2023-05-01T04:32:30.473Z,11.20
2023-05-01T04:34:57.931Z,8.90
2023-05-01T04:37:24.811Z,14.83
2023-05-01T04:39:53.862Z,10.77
2023-05-01T04:42:21.139Z,9.17
2023-05-01T04:44:48.636Z,11.17
2023-05-01T04:47:15.474Z,15.30
2023-05-01T04:49:42.647Z,10.00
2023-05-01T04:52:09.519Z,10.10
2023-05-01T04:54:36.658Z,9.57
2023-05-01T04:57:05.089Z,10.93
2023-05-01T04:59:32.286Z,14.27
2023-05-01T05:01:59.226Z,11.30
2023-05-01T05:04:26.163Z,11.10
2023-05-01T05:06:53.035Z,10.57
2023-05-01T05:09:20.392Z,10.20
2023-05-01T05:11:47.322Z,16.93
2023-05-01T05:14:15.522Z,10.03
2023-05-01T05:16:42.633Z,11.20
2023-05-01T05:19:09.801Z,15.33
2023-05-01T05:21:37.313Z,10.80
2023-05-01T05:24:04.789Z,12.50
2023-05-01T05:26:31.646Z,19.50
2023-05-01T05:28:58.846Z,12.77
2023-05-01T05:31:27.045Z,17.17
2023-05-01T05:33:54.384Z,15.23
2023-05-01T05:36:21.469Z,13.63
2023-05-01T05:38:48.377Z,15.93
2023-05-01T05:41:15.861Z,11.57
2023-05-01T05:43:42.740Z,11.97
2023-05-01T05:46:10.019Z,16.17
2023-05-01T05:48:38.271Z,11.90
2023-05-01T05:51:05.867Z,15.90
2023-05-01T05:53:32.801Z,16.23
2023-05-01T05:55:59.945Z,16.77
2023-05-01T05:58:27.301Z,11.70
2023-05-01T06:00:55.805Z,12.67
2023-05-01T06:03:22.957Z,10.17
2023-05-01T06:05:51.849Z,12.77
2023-05-01T06:08:18.713Z,17.53
2023-05-01T06:10:46.385Z,13.37
2023-05-01T06:13:14.907Z,19.30
2023-05-01T06:15:42.248Z,10.33
2023-05-01T06:18:09.388Z,12.17
2023-05-01T06:20:37.248Z,10.93
2023-05-01T06:23:05.417Z,12.60
2023-05-01T06:25:32.667Z,12.03
2023-05-01T06:27:59.558Z,15.37
2023-05-01T06:30:26.633Z,10.50
2023-05-01T06:32:53.428Z,10.20
2023-05-01T06:35:21.349Z,9.80
2023-05-01T06:37:48.180Z,13.73
2023-05-01T06:40:16.804Z,14.53
2023-05-01T06:42:43.769Z,10.80
2023-05-01T06:45:11.155Z,11.47
2023-05-01T06:47:37.954Z,13.17
2023-05-01T06:50:06.198Z,13.83
2023-05-01T06:52:33.052Z,14.23
2023-05-01T06:55:00.252Z,9.47
2023-05-01T06:57:28.430Z,10.87
2023-05-01T06:59:55.999Z,13.30
2023-05-01T07:02:23.131Z,13.60
2023-05-01T07:04:50.387Z,11.47
2023-05-01T07:07:17.166Z,12.43
2023-05-01T07:09:44.373Z,10.90
2023-05-01T07:12:11.229Z,13.30
2023-05-01T07:14:39.431Z,16.63
2023-05-01T07:17:06.767Z,14.63
2023-05-01T07:19:34.111Z,11.60
2023-05-01T07:22:01.028Z,16.77
2023-05-01T07:24:28.407Z,14.93
2023-05-01T07:26:56.594Z,14.90
2023-05-01T07:29:23.991Z,17.97
2023-05-01T07:31:52.152Z,22.40
2023-05-01T07:34:19.854Z,17.57
2023-05-01T07:36:46.792Z,16.00
2023-05-01T07:39:15.015Z,17.07
2023-05-01T07:41:41.908Z,17.43
2023-05-01T07:44:09.018Z,17.90
2023-05-01T07:46:36.879Z,16.70
2023-05-01T07:49:05.708Z,17.93
2023-05-01T07:51:32.691Z,18.73
2023-05-01T07:54:04.754Z,21.70
2023-05-01T07:56:31.827Z,20.87
2023-05-01T07:58:59.851Z,23.80
2023-05-01T08:01:26.776Z,26.00
2023-05-01T08:03:54.090Z,23.03
2023-05-01T08:06:22.519Z,25.40
2023-05-01T08:08:49.817Z,20.57
2023-05-01T08:11:16.663Z,23.63
2023-05-01T08:13:43.847Z,25.60
2023-05-01T08:16:10.805Z,20.93
2023-05-01T08:18:37.936Z,28.97
2023-05-01T08:21:04.901Z,19.57
2023-05-01T08:23:33.434Z,21.30
2023-05-01T08:26:00.188Z,30.37
2023-05-01T08:28:27.432Z,27.70
2023-05-01T08:30:54.167Z,21.63
2023-05-01T08:33:21.296Z,23.97
2023-05-01T08:35:49.424Z,18.50
2023-05-01T08:38:16.585Z,21.97
2023-05-01T08:40:53.393Z,17.87
2023-05-01T08:43:21.114Z,16.73
2023-05-01T08:45:49.786Z,20.33
2023-05-01T08:48:18.575Z,16.50
2023-05-01T08:50:46.916Z,19.30
2023-05-01T08:53:16.380Z,18.43
2023-05-01T08:55:49.120Z,20.77
2023-05-01T08:58:18.372Z,21.30
2023-05-01T09:00:46.579Z,17.37
2023-05-01T09:03:18.112Z,19.77
2023-05-01T09:05:47.013Z,17.50
2023-05-01T09:08:14.580Z,15.30
2023-05-01T09:10:45.311Z,16.67
2023-05-01T09:13:13.974Z,19.20
2023-05-01T09:15:41.056Z,14.27
2023-05-01T09:18:09.119Z,18.80
2023-05-01T09:20:37.492Z,13.10
2023-05-01T09:23:04.448Z,17.90
2023-05-01T09:25:31.422Z,14.43
2023-05-01T09:27:58.237Z,16.90
2023-05-01T09:30:34.031Z,18.13
2023-05-01T09:33:08.858Z,13.97
2023-05-01T09:35:49.950Z,14.83
2023-05-01T09:38:21.567Z,14.40
2023-05-01T09:40:48.473Z,12.60
2023-05-01T09:43:25.902Z,14.43
2023-05-01T09:46:09.350Z,13.17
2023-05-01T09:48:37.689Z,14.37
2023-05-01T09:51:24.603Z,12.97
2023-05-01T09:53:52.711Z,14.17
2023-05-01T09:56:21.422Z,16.20
2023-05-01T09:58:50.393Z,22.45
2023-05-01T10:01:18.825Z,14.73
2023-05-01T10:03:46.472Z,17.65
2023-05-01T10:06:29.874Z,15.63
2023-05-01T10:08:56.810Z,14.98
2023-05-01T10:11:23.844Z,13.68
2023-05-01T10:14:07.746Z,14.77
2023-05-01T10:16:37.658Z,14.68
2023-05-01T10:19:05.786Z,12.57
2023-05-01T10:21:33.535Z,12.23
2023-05-01T10:24:03.579Z,18.42
2023-05-01T10:26:30.548Z,9.88
2023-05-01T10:28:59.773Z,14.68
2023-05-01T10:31:27.808Z,14.25
2023-05-01T10:33:56.510Z,14.20
2023-05-01T10:36:26.200Z,14.57
2023-05-01T10:38:53.151Z,10.38
2023-05-01T10:41:54.357Z,11.65
2023-05-01T10:44:23.671Z,12.10
2023-05-01T10:46:50.622Z,15.27
2023-05-01T10:49:22.164Z,14.02
2023-05-01T10:52:00.903Z,12.40
2023-05-01T10:57:44.298Z,18.25
2023-05-01T11:00:11.813Z,11.85
2023-05-01T11:02:39.089Z,14.52
2023-05-01T11:05:07.954Z,10.35
2023-05-01T11:07:35.324Z,15.68
2023-05-01T11:10:02.202Z,13.35
2023-05-01T11:12:49.510Z,10.15
2023-05-01T11:15:29.322Z,13.88
2023-05-01T11:17:57.325Z,14.80
2023-05-01T11:20:48.421Z,12.73
2023-05-01T11:23:19.557Z,13.80
2023-05-01T11:25:48.058Z,12.15
2023-05-01T11:28:20.470Z,11.98
2023-05-01T11:30:48.258Z,12.82
2023-05-01T11:33:22.544Z,11.43
2023-05-01T11:36:01.716Z,13.45
2023-05-01T11:38:28.860Z,9.23
2023-05-01T11:40:59.177Z,10.70
2023-05-01T11:43:26.667Z,10.75
2023-05-01T11:45:55.486Z,18.77
2023-05-01T11:48:22.413Z,11.40
2023-05-01T11:50:50.235Z,7.50
2023-05-01T11:53:18.596Z,9.15
2023-05-01T11:55:45.704Z,7.63
2023-05-01T11:58:12.771Z,8.43
2023-05-01T12:00:41.968Z,6.55
2023-05-01T12:03:10.618Z,6.40
2023-05-01T12:05:39.258Z,7.18
2023-05-01T12:08:09.780Z,7.07
2023-05-01T12:10:40.129Z,8.52
2023-05-01T12:13:08.883Z,7.32
2023-05-01T12:15:37.635Z,7.38
2023-05-01T12:18:05.953Z,8.93
2023-05-01T12:20:40.470Z,7.50
2023-05-01T12:23:09.656Z,7.07
2023-05-01T12:25:39.757Z,6.55
2023-05-01T12:28:11.228Z,6.35
2023-05-01T12:30:39.321Z,6.13
2023-05-01T12:33:11.628Z,6.18
2023-05-01T12:35:39.806Z,6.93
2023-05-01T12:38:14.495Z,7.43
2023-05-01T12:40:52.600Z,9.93
2023-05-01T12:43:19.952Z,5.35
2023-05-01T12:45:51.769Z,7.07
2023-05-01T12:48:19.018Z,4.85
2023-05-01T12:50:47.495Z,6.35
2023-05-01T12:53:14.977Z,10.10
2023-05-01T12:55:47.933Z,9.32
2023-05-01T12:58:16.218Z,5.32
2023-05-01T13:00:45.554Z,7.90
2023-05-01T13:03:13.185Z,3.95
2023-05-01T13:05:54.219Z,5.65
2023-05-01T13:08:29.706Z,8.05
2023-05-01T13:10:59.772Z,4.38
2023-05-01T13:13:31.921Z,4.97
2023-05-01T13:16:07.351Z,4.07
2023-05-01T13:18:34.636Z,3.85
2023-05-01T13:21:08.884Z,4.45
2023-05-01T13:23:37.824Z,4.75
2023-05-01T13:26:07.211Z,5.03
2023-05-01T13:28:35.975Z,4.20
2023-05-01T13:31:12.870Z,3.63
2023-05-01T13:33:41.363Z,4.97
2023-05-01T13:36:18.141Z,6.25
2023-05-01T13:38:54.386Z,6.82
2023-05-01T13:41:26.071Z,3.67
2023-05-01T13:43:54.573Z,4.47
2023-05-01T13:46:24.067Z,5.50
2023-05-01T13:48:51.605Z,4.88
2023-05-01T13:51:22.433Z,3.85
2023-05-01T13:53:49.616Z,5.43
2023-05-01T13:56:16.546Z,4.28
2023-05-01T13:58:45.444Z,3.45
2023-05-01T14:01:16.091Z,7.82
2023-05-01T14:03:43.929Z,3.67
2023-05-01T14:06:12.685Z,5.13
2023-05-01T14:08:40.047Z,5.68
2023-05-01T14:11:08.682Z,4.47
2023-05-01T14:13:36.243Z,3.17
2023-05-01T14:16:07.872Z,4.90
2023-05-01T14:18:35.533Z,5.65
2023-05-01T14:21:02.659Z,2.70
2023-05-01T14:23:32.153Z,3.28
2023-05-01T14:25:58.974Z,3.05
2023-05-01T14:28:26.078Z,2.83
2023-05-01T14:30:54.700Z,5.45
2023-05-01T14:33:23.287Z,4.07
2023-05-01T14:35:52.399Z,2.30
2023-05-01T14:38:21.680Z,3.03
2023-05-01T14:40:48.758Z,4.55
2023-05-01T14:43:18.420Z,3.40
2023-05-01T14:45:46.706Z,2.28
2023-05-01T14:48:23.515Z,2.85
2023-05-01T14:50:50.948Z,2.25
2023-05-01T14:53:18.372Z,4.20
2023-05-01T14:55:45.212Z,1.85
2023-05-01T14:58:12.100Z,3.28
2023-05-01T15:00:39.053Z,5.05
2023-05-01T15:03:06.000Z,2.25
2023-05-01T15:05:34.402Z,2.15
2023-05-01T15:08:01.812Z,3.10
2023-05-01T15:10:29.432Z,3.30
2023-05-01T15:12:56.330Z,2.70
2023-05-01T15:15:23.200Z,2.65
2023-05-01T15:17:50.119Z,1.70
2023-05-01T15:20:17.150Z,2.88
2023-05-01T15:22:46.380Z,2.53
2023-05-01T15:25:13.723Z,4.63
2023-05-01T15:27:40.640Z,1.73
2023-05-01T15:30:10.133Z,1.90
2023-05-01T15:32:37.426Z,2.42
2023-05-01T15:35:04.920Z,2.75
2023-05-01T15:37:31.929Z,3.22
2023-05-01T15:40:00.301Z,2.38
2023-05-01T15:42:27.273Z,1.77
2023-05-01T15:44:54.407Z,3.83
2023-05-01T15:47:21.190Z,2.67
2023-05-01T15:49:48.916Z,1.75
2023-05-01T15:52:15.744Z,1.98
2023-05-01T15:54:46.024Z,2.50
2023-05-01T15:57:17.635Z,2.15
2023-05-01T15:59:45.054Z,2.03
2023-05-01T16:02:12.239Z,3.40
2023-05-01T16:04:39.549Z,1.35
2023-05-01T16:07:08.852Z,2.95
2023-05-01T16:09:35.998Z,1.58
2023-05-01T16:12:03.108Z,1.50
2023-05-01T16:14:32.025Z,4.35
2023-05-01T16:16:59.022Z,2.42
2023-05-01T16:19:29.476Z,2.55
2023-05-01T16:21:56.396Z,1.77
2023-05-01T16:24:23.585Z,3.25
2023-05-01T16:26:50.498Z,2.53
2023-05-01T16:29:18.969Z,1.65
2023-05-01T16:31:47.651Z,1.73
2023-05-01T16:34:15.552Z,3.15
2023-05-01T16:36:43.014Z,2.72
2023-05-01T16:39:11.487Z,4.28
2023-05-01T16:41:44.352Z,4.45
2023-05-01T16:44:11.930Z,2.35
2023-05-01T16:46:41.065Z,1.90
2023-05-01T16:49:11.116Z,2.92
2023-05-01T16:51:38.581Z,2.65
2023-05-01T16:54:05.728Z,3.58
2023-05-01T16:56:32.580Z,2.58
2023-05-01T16:58:59.497Z,3.60
2023-05-01T17:01:26.382Z,2.35
2023-05-01T17:03:53.549Z,8.63
2023-05-01T17:06:22.110Z,3.33
2023-05-01T17:08:49.797Z,2.95
2023-05-01T17:11:16.794Z,2.42
2023-05-01T17:13:44.018Z,3.65
2023-05-01T17:16:10.901Z,1.77
2023-05-01T17:18:37.844Z,2.80
2023-05-01T17:21:05.109Z,1.95
2023-05-01T17:23:33.327Z,4.10
2023-05-01T17:26:00.765Z,1.90
2023-05-01T17:28:27.673Z,2.10
2023-05-01T17:30:54.473Z,3.47
2023-05-01T17:33:22.090Z,2.85
2023-05-01T17:35:49.373Z,1.45
2023-05-01T17:38:17.437Z,2.72
2023-05-01T17:40:46.074Z,2.47
2023-05-01T17:43:13.921Z,3.75
2023-05-01T17:45:41.064Z,1.77
2023-05-01T17:48:08.497Z,1.77
2023-05-01T17:50:35.310Z,2.83
2023-05-01T17:53:02.135Z,1.33
2023-05-01T17:55:29.616Z,2.08
2023-05-01T17:57:58.180Z,3.92
2023-05-01T18:00:27.523Z,2.67
2023-05-01T18:02:54.670Z,5.43
2023-05-01T18:05:22.621Z,1.27
2023-05-01T18:07:50.162Z,1.33
2023-05-01T18:10:17.125Z,1.33
2023-05-01T18:12:45.730Z,2.70
2023-05-01T18:15:17.406Z,4.10
2023-05-01T18:17:49.068Z,1.60
2023-05-01T18:20:16.139Z,3.58
2023-05-01T18:22:42.947Z,2.15
2023-05-01T18:25:10.065Z,1.50
2023-05-01T18:27:37.894Z,4.00
2023-05-01T18:30:05.426Z,2.53
2023-05-01T18:32:46.388Z,1.60
2023-05-01T18:35:15.156Z,3.25
2023-05-01T18:37:43.177Z,2.13
2023-05-01T18:40:10.746Z,2.75
2023-05-01T18:42:38.231Z,2.40
2023-05-01T18:45:06.412Z,1.60
2023-05-01T18:47:34.904Z,4.85
2023-05-01T18:50:02.206Z,3.22
2023-05-01T18:52:30.261Z,4.63
2023-05-01T18:54:57.216Z,1.88
2023-05-01T18:57:24.127Z,4.50
2023-05-01T18:59:51.011Z,3.72
2023-05-01T19:02:17.838Z,5.15
2023-05-01T19:04:56.925Z,7.13
2023-05-01T19:07:25.274Z,7.13
2023-05-01T19:09:52.468Z,6.50
2023-05-01T19:12:19.270Z,6.22
2023-05-01T19:14:46.181Z,5.18
2023-05-01T19:17:13.381Z,8.40
2023-05-01T19:19:40.264Z,11.05
2023-05-01T19:22:08.445Z,5.13
2023-05-01T19:24:35.694Z,7.00
2023-05-01T19:27:03.430Z,5.75
2023-05-01T19:29:31.716Z,6.30
2023-05-01T19:32:00.285Z,9.40
2023-05-01T19:34:27.408Z,8.90
2023-05-01T19:36:57.666Z,7.53
2023-05-01T19:39:26.492Z,8.60
2023-05-01T19:41:54.013Z,7.15
2023-05-01T19:44:21.167Z,6.22
2023-05-01T19:46:48.739Z,10.55
2023-05-01T19:49:16.054Z,6.93
2023-05-01T19:51:43.120Z,3.83
2023-05-01T19:54:10.003Z,6.22
2023-05-01T19:56:39.387Z,4.05
2023-05-01T19:59:06.306Z,2.90
2023-05-01T20:01:33.362Z,4.03
2023-05-01T20:04:00.394Z,3.43
2023-05-01T20:06:27.601Z,5.13
2023-05-01T20:08:54.821Z,3.77
2023-05-01T20:11:21.654Z,2.60
2023-05-01T20:13:50.415Z,7.30
2023-05-01T20:16:17.328Z,4.27
2023-05-01T20:18:44.270Z,2.47
2023-05-01T20:21:11.122Z,5.10
2023-05-01T20:23:38.481Z,8.47
2023-05-01T20:26:05.274Z,7.87
2023-05-01T20:28:32.250Z,6.17
2023-05-01T20:31:00.705Z,3.10
2023-05-01T20:33:27.655Z,5.63
2023-05-01T20:35:54.440Z,4.17
2023-05-01T20:38:22.224Z,3.70
2023-05-01T20:40:49.075Z,2.60
2023-05-01T20:43:16.488Z,2.30
2023-05-01T20:45:43.355Z,3.30
2023-05-01T20:48:11.916Z,7.20
2023-05-01T20:50:41.415Z,2.97
2023-05-01T20:53:08.612Z,2.30
2023-05-01T20:55:36.386Z,2.00
2023-05-01T20:58:03.763Z,3.80
2023-05-01T21:00:30.560Z,3.27
2023-05-01T21:02:59.651Z,1.87
2023-05-01T21:05:29.021Z,2.37
2023-05-01T21:07:57.969Z,1.80
2023-05-01T21:10:24.854Z,2.90
2023-05-01T21:12:54.569Z,3.13
2023-05-01T21:15:22.453Z,2.10
2023-05-01T21:17:49.779Z,2.73
2023-05-01T21:20:21.831Z,2.20
2023-05-01T21:22:50.508Z,3.10
2023-05-01T21:25:28.150Z,2.77
2023-05-01T21:27:55.305Z,1.80
2023-05-01T21:30:29.603Z,2.20
2023-05-01T21:32:57.675Z,2.13
2023-05-01T21:35:25.651Z,2.03
2023-05-01T21:37:54.110Z,2.00
2023-05-01T21:40:21.280Z,2.00
2023-05-01T21:42:48.772Z,3.60
2023-05-01T21:45:18.911Z,4.03
2023-05-01T21:47:47.789Z,4.57
2023-05-01T21:50:17.208Z,2.80
2023-05-01T21:52:46.068Z,8.47
2023-05-01T21:55:17.453Z,2.30
2023-05-01T21:57:44.769Z,2.23
2023-05-01T22:00:12.665Z,2.20
2023-05-01T22:02:42.171Z,3.97
2023-05-01T22:05:11.121Z,4.17
2023-05-01T22:07:40.585Z,2.73
2023-05-01T22:10:09.051Z,7.00
2023-05-01T22:12:37.900Z,4.00
2023-05-01T22:15:05.760Z,2.77
2023-05-01T22:17:34.645Z,2.93
2023-05-01T22:20:05.689Z,3.87
2023-05-01T22:22:32.535Z,4.30
2023-05-01T22:24:59.383Z,4.93
2023-05-01T22:27:26.532Z,5.40
2023-05-01T22:29:54.679Z,3.27
2023-05-01T22:32:22.022Z,3.90
2023-05-01T22:34:49.054Z,3.77
2023-05-01T22:37:16.227Z,3.93
2023-05-01T22:39:43.017Z,6.60
2023-05-01T22:42:10.302Z,4.20
2023-05-01T22:44:37.081Z,5.37
2023-05-01T22:47:05.263Z,7.63
2023-05-01T22:49:32.703Z,4.63
2023-05-01T22:52:00.164Z,8.83
2023-05-01T22:54:26.960Z,7.03
2023-05-01T22:56:54.084Z,6.97
2023-05-01T22:59:21.664Z,17.83
2023-05-01T23:01:49.054Z,6.20
2023-05-01T23:04:17.506Z,6.37
2023-05-01T23:06:44.896Z,9.87
2023-05-01T23:09:11.997Z,6.60
2023-05-01T23:11:40.899Z,5.40
2023-05-01T23:14:07.848Z,7.33
2023-05-01T23:16:41.984Z,8.17
2023-05-01T23:19:22.171Z,6.03
2023-05-01T23:21:50.014Z,7.83
2023-05-01T23:24:19.010Z,8.50
2023-05-01T23:26:46.673Z,6.53
2023-05-01T23:29:14.170Z,8.83
2023-05-01T23:31:45.933Z,6.33
2023-05-01T23:34:17.377Z,6.10
2023-05-01T23:36:47.536Z,4.27
2023-05-01T23:39:16.026Z,7.63
2023-05-01T23:41:43.167Z,8.40
2023-05-01T23:44:10.708Z,11.30
2023-05-01T23:46:38.178Z,10.37
2023-05-01T23:49:05.180Z,8.47
2023-05-01T23:51:32.109Z,8.13
2023-05-01T23:54:00.483Z,4.50
2023-05-01T23:56:27.380Z,6.93
2023-05-01T23:58:54.272Z,9.07
